createdAt,value
2022-08-20T00:00:55.161Z,980.95
2022-08-20T00:01:55.884Z,980.91
2022-08-20T00:02:54.833Z,980.89
2022-08-20T00:03:54.803Z,980.89
2022-08-20T00:04:54.803Z,980.96
2022-08-20T00:05:55.984Z,981.00
2022-08-20T00:06:54.784Z,980.99
2022-08-20T00:07:55.013Z,981.01
2022-08-20T00:08:54.763Z,981.03
2022-08-20T00:09:54.743Z,981.06
2022-08-20T00:10:55.773Z,981.04
2022-08-20T00:11:54.713Z,981.02
2022-08-20T00:12:54.715Z,981.04
2022-08-20T00:13:54.692Z,981.02
2022-08-20T00:14:54.700Z,981.02
2022-08-20T00:15:54.663Z,981.00
2022-08-20T00:16:54.674Z,981.00
2022-08-20T00:17:55.800Z,981.00
2022-08-20T00:18:54.653Z,981.01
2022-08-20T00:19:54.625Z,981.03
2022-08-20T00:20:54.639Z,981.05
2022-08-20T00:21:55.729Z,981.08
2022-08-20T00:22:54.605Z,981.10
2022-08-20T00:23:54.583Z,981.10
2022-08-20T00:24:54.585Z,981.12
2022-08-20T00:25:54.676Z,981.10
2022-08-20T00:26:54.564Z,981.11
2022-08-20T00:27:54.571Z,981.12
2022-08-20T00:28:54.542Z,981.14
2022-08-20T00:29:54.506Z,981.13
2022-08-20T00:30:54.511Z,981.13
2022-08-20T00:31:54.484Z,981.15
2022-08-20T00:32:54.527Z,981.09
2022-08-20T00:33:54.495Z,981.08
2022-08-20T00:34:54.475Z,981.05
2022-08-20T00:35:54.442Z,981.09
2022-08-20T00:36:54.443Z,981.09
2022-08-20T00:37:57.440Z,981.09
2022-08-20T00:38:55.431Z,981.07
2022-08-20T00:39:54.444Z,981.07
2022-08-20T00:40:54.395Z,981.10
2022-08-20T00:41:54.374Z,981.08
2022-08-20T00:42:54.374Z,981.09
2022-08-20T00:43:54.353Z,981.10
2022-08-20T00:44:54.359Z,981.10
2022-08-20T00:45:54.325Z,981.16
2022-08-20T00:46:54.326Z,981.15
2022-08-20T00:47:54.297Z,981.17
2022-08-20T00:48:54.536Z,981.16
2022-08-20T00:49:54.288Z,981.24
2022-08-20T00:50:54.295Z,981.20
2022-08-20T00:51:54.255Z,981.19
2022-08-20T00:52:54.268Z,981.17
2022-08-20T00:53:54.235Z,981.18
2022-08-20T00:54:54.244Z,981.15
2022-08-20T00:55:54.216Z,981.17
2022-08-20T00:56:54.224Z,981.13
2022-08-20T00:58:00.712Z,981.13
2022-08-20T00:58:55.194Z,981.12
2022-08-20T00:59:54.167Z,981.08
2022-08-20T01:00:54.176Z,981.10
2022-08-20T01:01:56.314Z,981.11
2022-08-20T01:02:54.159Z,981.07
2022-08-20T01:03:54.128Z,981.12
2022-08-20T01:04:54.126Z,981.10
2022-08-20T01:05:54.100Z,981.12
2022-08-20T01:06:54.196Z,981.13
2022-08-20T01:07:54.086Z,981.15
2022-08-20T01:08:54.086Z,981.16
2022-08-20T01:09:59.184Z,981.15
2022-08-20T01:10:55.064Z,981.19
2022-08-20T01:11:54.038Z,981.19
2022-08-20T01:12:58.947Z,981.17
2022-08-20T01:13:55.007Z,981.17
2022-08-20T01:14:54.016Z,981.18
2022-08-20T01:15:53.988Z,981.15
2022-08-20T01:16:53.996Z,981.18
2022-08-20T01:17:53.959Z,981.15
2022-08-20T01:18:53.982Z,981.15
2022-08-20T01:19:53.947Z,981.13
2022-08-20T01:20:53.947Z,981.15
2022-08-20T01:21:54.669Z,981.15
2022-08-20T01:22:53.946Z,981.14
2022-08-20T01:23:53.898Z,981.20
2022-08-20T01:24:53.908Z,981.20
2022-08-20T01:25:53.885Z,981.20
2022-08-20T01:26:53.906Z,981.22
2022-08-20T01:27:55.573Z,981.19
2022-08-20T01:28:53.849Z,981.19
2022-08-20T01:29:53.828Z,981.16
2022-08-20T01:30:53.837Z,981.12
2022-08-20T01:31:53.809Z,981.14
2022-08-20T01:32:54.150Z,981.16
2022-08-20T01:33:53.780Z,981.12
2022-08-20T01:34:53.787Z,981.11
2022-08-20T01:35:53.758Z,981.15
2022-08-20T01:36:53.789Z,981.13
2022-08-20T01:37:53.753Z,981.20
2022-08-20T01:38:54.534Z,981.19
2022-08-20T01:39:53.795Z,981.21
2022-08-20T01:40:53.700Z,981.19
2022-08-20T01:41:53.710Z,981.22
2022-08-20T01:42:59.314Z,981.22
2022-08-20T01:43:54.688Z,981.18
2022-08-20T01:44:53.658Z,981.20
2022-08-20T01:45:53.658Z,981.20
2022-08-20T01:46:53.636Z,981.17
2022-08-20T01:47:53.639Z,981.17
2022-08-20T01:48:53.610Z,981.20
2022-08-20T01:49:53.611Z,981.19
2022-08-20T01:50:53.590Z,981.19
2022-08-20T01:51:53.593Z,981.16
2022-08-20T01:52:53.570Z,981.18
2022-08-20T01:53:53.560Z,981.17
2022-08-20T01:54:53.550Z,981.20
2022-08-20T01:55:53.552Z,981.22
2022-08-20T01:56:53.519Z,981.22
2022-08-20T01:57:53.518Z,981.20
2022-08-20T01:58:56.182Z,981.24
2022-08-20T01:59:54.501Z,981.25
2022-08-20T02:00:53.471Z,981.25
2022-08-20T02:01:53.524Z,981.24
2022-08-20T02:02:53.451Z,981.23
2022-08-20T02:03:53.481Z,981.23
2022-08-20T02:04:53.430Z,981.24
2022-08-20T02:05:53.430Z,981.25
2022-08-20T02:06:56.844Z,981.25
2022-08-20T02:07:53.411Z,981.25
2022-08-20T02:08:53.544Z,981.25
2022-08-20T02:09:53.831Z,981.20
2022-08-20T02:10:53.367Z,981.25
2022-08-20T02:11:54.021Z,981.18
2022-08-20T02:12:53.382Z,981.20
2022-08-20T02:13:53.339Z,981.18
2022-08-20T02:14:53.314Z,981.16
2022-08-20T02:15:53.322Z,981.16
2022-08-20T02:16:54.755Z,981.18
2022-08-20T02:17:53.321Z,981.19
2022-08-20T02:18:53.271Z,981.21
2022-08-20T02:19:53.263Z,981.24
2022-08-20T02:20:53.271Z,981.20
2022-08-20T02:21:53.471Z,981.21
2022-08-20T02:22:55.199Z,981.24
2022-08-20T02:23:53.232Z,981.23
2022-08-20T02:24:53.202Z,981.19
2022-08-20T02:25:53.203Z,981.21
2022-08-20T02:26:53.182Z,981.21
2022-08-20T02:27:53.180Z,981.24
2022-08-20T02:28:53.154Z,981.21
2022-08-20T02:29:53.162Z,981.21
2022-08-20T02:30:53.135Z,981.23
2022-08-20T02:32:28.339Z,981.23
2022-08-20T02:32:55.238Z,981.20
2022-08-20T02:34:18.498Z,981.23
2022-08-20T02:34:54.084Z,981.23
2022-08-20T02:35:53.102Z,981.21
2022-08-20T02:36:53.063Z,981.20
2022-08-20T02:37:53.063Z,981.21
2022-08-20T02:38:53.103Z,981.24
2022-08-20T02:39:53.102Z,981.19
2022-08-20T02:40:53.321Z,981.18
2022-08-20T02:41:53.761Z,981.18
2022-08-20T02:42:53.072Z,981.21
2022-08-20T02:43:52.993Z,981.18
2022-08-20T02:44:53.245Z,981.21
2022-08-20T02:45:52.973Z,981.18
2022-08-20T02:46:53.584Z,981.20
2022-08-20T02:47:52.988Z,981.22
2022-08-20T02:48:52.934Z,981.19
2022-08-20T02:49:53.294Z,981.20
2022-08-20T02:50:52.915Z,981.21
2022-08-20T02:51:52.905Z,981.18
2022-08-20T02:52:52.890Z,981.19
2022-08-20T02:53:52.895Z,981.14
2022-08-20T02:54:52.865Z,981.14
2022-08-20T02:55:53.589Z,981.17
2022-08-20T02:56:52.856Z,981.15
2022-08-20T02:57:52.835Z,981.15
2022-08-20T02:58:52.816Z,981.12
2022-08-20T02:59:52.816Z,981.19
2022-08-20T03:00:53.614Z,981.14
2022-08-20T03:02:00.473Z,981.08
2022-08-20T03:02:53.804Z,981.10
2022-08-20T03:03:52.781Z,981.12
2022-08-20T03:04:52.757Z,981.11
2022-08-20T03:05:52.748Z,981.08
2022-08-20T03:06:52.718Z,981.11
2022-08-20T03:07:52.767Z,981.11
2022-08-20T03:08:52.707Z,981.11
2022-08-20T03:09:52.723Z,981.12
2022-08-20T03:10:52.686Z,981.14
2022-08-20T03:11:52.716Z,981.12
2022-08-20T03:12:52.646Z,981.10
2022-08-20T03:13:52.646Z,981.15
2022-08-20T03:14:52.626Z,981.16
2022-08-20T03:15:57.971Z,981.19
2022-08-20T03:16:53.616Z,981.20
2022-08-20T03:17:53.377Z,981.21
2022-08-20T03:18:52.597Z,981.20
2022-08-20T03:19:52.584Z,981.25
2022-08-20T03:20:52.560Z,981.24
2022-08-20T03:21:52.707Z,981.25
2022-08-20T03:22:52.704Z,981.30
2022-08-20T03:23:53.311Z,981.26
2022-08-20T03:24:52.520Z,981.21
2022-08-20T03:25:52.710Z,981.21
2022-08-20T03:26:52.498Z,981.23
2022-08-20T03:27:54.115Z,981.18
2022-08-20T03:28:53.227Z,981.26
2022-08-20T03:29:53.249Z,981.21
2022-08-20T03:30:52.477Z,981.21
2022-08-20T03:31:52.449Z,981.19
2022-08-20T03:32:52.417Z,981.27
2022-08-20T03:33:53.843Z,981.29
2022-08-20T03:34:52.717Z,981.26
2022-08-20T03:35:52.415Z,981.29
2022-08-20T03:36:52.378Z,981.26
2022-08-20T03:37:52.382Z,981.33
2022-08-20T03:38:52.356Z,981.28
2022-08-20T03:39:53.208Z,981.26
2022-08-20T03:40:52.359Z,981.28
2022-08-20T03:41:53.117Z,981.28
2022-08-20T03:42:52.330Z,981.28
2022-08-20T03:43:53.067Z,981.26
2022-08-20T03:44:58.713Z,981.23
2022-08-20T03:45:53.513Z,981.28
2022-08-20T03:46:53.039Z,981.26
2022-08-20T03:47:52.324Z,981.26
2022-08-20T03:48:59.883Z,981.28
2022-08-20T03:49:53.239Z,981.28
2022-08-20T03:50:53.158Z,981.29
2022-08-20T03:51:57.531Z,981.34
2022-08-20T03:52:53.199Z,981.34
2022-08-20T03:53:52.199Z,981.37
2022-08-20T03:54:52.169Z,981.37
2022-08-20T03:55:53.937Z,981.41
2022-08-20T03:56:52.189Z,981.41
2022-08-20T03:57:52.274Z,981.39
2022-08-20T03:58:52.129Z,981.40
2022-08-20T03:59:58.071Z,981.39
2022-08-20T04:00:53.162Z,981.35
2022-08-20T04:01:52.173Z,981.35
2022-08-20T04:02:53.041Z,981.36
2022-08-20T04:03:55.123Z,981.37
2022-08-20T04:04:52.084Z,981.38
2022-08-20T04:05:52.069Z,981.44
2022-08-20T04:06:52.908Z,981.40
2022-08-20T04:07:52.868Z,981.42
2022-08-20T04:08:52.059Z,981.40
2022-08-20T04:09:52.740Z,981.42
2022-08-20T04:10:51.991Z,981.43
2022-08-20T04:11:52.022Z,981.44
2022-08-20T04:12:53.171Z,981.44
2022-08-20T04:13:52.762Z,981.42
2022-08-20T04:14:51.941Z,981.47
2022-08-20T04:15:51.948Z,981.45
2022-08-20T04:16:52.734Z,981.48
2022-08-20T04:17:52.000Z,981.46
2022-08-20T04:19:01.492Z,981.47
2022-08-20T04:19:52.901Z,981.42
2022-08-20T04:20:51.871Z,981.45
2022-08-20T04:21:52.611Z,981.43
2022-08-20T04:22:59.405Z,981.44
2022-08-20T04:23:52.867Z,981.43
2022-08-20T04:24:51.861Z,981.42
2022-08-20T04:25:51.840Z,981.39
2022-08-20T04:26:51.802Z,981.45
2022-08-20T04:27:52.620Z,981.39
2022-08-20T04:28:51.822Z,981.42
2022-08-20T04:29:52.492Z,981.42
2022-08-20T04:30:52.104Z,981.43
2022-08-20T04:31:51.763Z,981.49
2022-08-20T04:32:51.950Z,981.54
2022-08-20T04:33:51.759Z,981.51
2022-08-20T04:34:52.032Z,981.55
2022-08-20T04:35:51.719Z,981.53
2022-08-20T04:36:51.682Z,981.54
2022-08-20T04:37:51.744Z,981.55
2022-08-20T04:38:52.222Z,981.54
2022-08-20T04:39:52.284Z,981.52
2022-08-20T04:40:52.042Z,981.56
2022-08-20T04:41:51.652Z,981.58
2022-08-20T04:42:51.838Z,981.58
2022-08-20T04:43:52.437Z,981.59
2022-08-20T04:44:51.755Z,981.59
2022-08-20T04:45:51.803Z,981.60
2022-08-20T04:46:51.603Z,981.64
2022-08-20T04:47:51.696Z,981.63
2022-08-20T04:48:51.546Z,981.69
2022-08-20T04:49:51.554Z,981.65
2022-08-20T04:50:53.296Z,981.69
2022-08-20T04:51:51.807Z,981.72
2022-08-20T04:52:52.338Z,981.73
2022-08-20T04:53:53.341Z,981.72
2022-08-20T04:54:51.483Z,981.75
2022-08-20T04:55:51.481Z,981.75
2022-08-20T04:56:51.479Z,981.80
2022-08-20T04:57:52.320Z,981.78
2022-08-20T04:58:51.492Z,981.83
2022-08-20T04:59:51.434Z,981.86
2022-08-20T05:00:51.442Z,981.81
2022-08-20T05:01:51.413Z,981.86
2022-08-20T05:02:52.140Z,981.89
2022-08-20T05:03:52.161Z,981.89
2022-08-20T05:04:51.384Z,981.88
2022-08-20T05:05:51.434Z,981.91
2022-08-20T05:06:51.345Z,981.87
2022-08-20T05:07:52.203Z,981.89
2022-08-20T05:08:51.346Z,981.87
2022-08-20T05:09:51.340Z,981.87
2022-08-20T05:10:54.119Z,981.84
2022-08-20T05:11:53.086Z,981.84
2022-08-20T05:12:56.642Z,981.90
2022-08-20T05:13:53.007Z,981.87
2022-08-20T05:14:51.266Z,981.87
2022-08-20T05:15:51.254Z,981.86
2022-08-20T05:16:51.706Z,981.88
2022-08-20T05:17:51.738Z,981.84
2022-08-20T05:18:52.787Z,981.84
2022-08-20T05:19:51.251Z,981.87
2022-08-20T05:20:51.186Z,981.89
2022-08-20T05:21:51.187Z,981.90
2022-08-20T05:22:51.155Z,981.94
2022-08-20T05:23:51.235Z,981.92
2022-08-20T05:24:51.145Z,981.91
2022-08-20T05:25:51.863Z,981.91
2022-08-20T05:26:51.135Z,981.92
2022-08-20T05:27:51.126Z,981.95
2022-08-20T05:28:58.335Z,981.96
2022-08-20T05:29:52.133Z,981.95
2022-08-20T05:30:51.087Z,981.93
2022-08-20T05:31:51.074Z,981.94
2022-08-20T05:32:51.515Z,981.97
2022-08-20T05:33:51.059Z,981.98
2022-08-20T05:34:51.026Z,981.97
2022-08-20T05:35:51.037Z,981.95
2022-08-20T05:36:51.006Z,981.94
2022-08-20T05:37:51.169Z,981.91
2022-08-20T05:38:50.982Z,981.92
2022-08-20T05:39:51.005Z,981.92
2022-08-20T05:40:50.973Z,981.96
2022-08-20T05:41:50.974Z,981.94
2022-08-20T05:42:50.936Z,982.00
2022-08-20T05:43:51.558Z,981.95
2022-08-20T05:44:50.926Z,981.97
2022-08-20T05:45:54.712Z,981.94
2022-08-20T05:46:52.777Z,981.93
2022-08-20T05:47:55.431Z,981.96
2022-08-20T05:48:51.877Z,981.94
2022-08-20T05:49:50.895Z,981.96
2022-08-20T05:50:50.837Z,981.98
2022-08-20T05:51:50.837Z,981.96
2022-08-20T05:52:50.818Z,981.99
2022-08-20T05:53:50.819Z,982.00
2022-08-20T05:54:50.807Z,982.01
2022-08-20T05:55:50.797Z,981.99
2022-08-20T05:56:50.786Z,981.97
2022-08-20T05:57:50.760Z,981.95
2022-08-20T05:58:51.149Z,981.97
2022-08-20T05:59:50.738Z,981.96
2022-08-20T06:00:50.781Z,981.96
2022-08-20T06:01:50.717Z,981.97
2022-08-20T06:02:50.718Z,981.95
2022-08-20T06:03:50.709Z,981.91
2022-08-20T06:04:56.167Z,981.92
2022-08-20T06:05:52.239Z,981.89
2022-08-20T06:06:50.749Z,981.90
2022-08-20T06:07:50.693Z,981.88
2022-08-20T06:08:50.749Z,981.93
2022-08-20T06:09:50.636Z,981.89
2022-08-20T06:10:50.662Z,981.84
2022-08-20T06:11:50.599Z,981.89
2022-08-20T06:12:50.606Z,981.89
2022-08-20T06:13:50.587Z,981.89
2022-08-20T06:14:50.578Z,981.91
2022-08-20T06:15:50.558Z,981.93
2022-08-20T06:16:57.860Z,981.96
2022-08-20T06:17:58.322Z,981.99
2022-08-20T06:18:51.599Z,981.97
2022-08-20T06:19:50.508Z,982.03
2022-08-20T06:20:50.525Z,981.99
2022-08-20T06:21:50.479Z,982.01
2022-08-20T06:22:50.487Z,982.02
2022-08-20T06:23:56.723Z,982.02
2022-08-20T06:24:51.527Z,981.98
2022-08-20T06:25:51.339Z,981.98
2022-08-20T06:26:51.240Z,982.01
2022-08-20T06:27:50.438Z,982.01
2022-08-20T06:28:50.430Z,981.98
2022-08-20T06:29:50.411Z,981.97
2022-08-20T06:30:51.111Z,981.99
2022-08-20T06:31:50.383Z,982.01
2022-08-20T06:32:50.380Z,981.99
2022-08-20T06:33:50.558Z,982.02
2022-08-20T06:34:51.139Z,982.02
2022-08-20T06:35:51.013Z,981.97
2022-08-20T06:36:50.343Z,981.95
2022-08-20T06:37:50.302Z,981.93
2022-08-20T06:38:50.309Z,981.95
2022-08-20T06:39:50.328Z,981.94
2022-08-20T06:40:50.282Z,981.95
2022-08-20T06:41:50.290Z,981.94
2022-08-20T06:42:50.260Z,981.92
2022-08-20T06:43:50.240Z,981.92
2022-08-20T06:44:50.271Z,981.95
2022-08-20T06:45:50.239Z,981.97
2022-08-20T06:46:50.260Z,981.96
2022-08-20T06:47:50.223Z,981.94
2022-08-20T06:48:50.201Z,981.98
2022-08-20T06:49:50.170Z,981.97
2022-08-20T06:50:50.172Z,981.95
2022-08-20T06:51:50.152Z,981.92
2022-08-20T06:52:52.759Z,981.91
2022-08-20T06:53:50.130Z,981.90
2022-08-20T06:54:50.159Z,981.87
2022-08-20T06:55:50.102Z,981.86
2022-08-20T06:56:50.101Z,981.89
2022-08-20T06:57:50.081Z,981.92
2022-08-20T06:58:50.087Z,981.95
2022-08-20T06:59:54.089Z,981.95
2022-08-20T07:00:50.136Z,981.99
2022-08-20T07:01:50.031Z,981.94
2022-08-20T07:02:50.110Z,981.94
2022-08-20T07:03:55.585Z,981.96
2022-08-20T07:04:51.022Z,981.98
2022-08-20T07:05:49.994Z,981.99
2022-08-20T07:06:50.003Z,982.01
2022-08-20T07:07:49.972Z,981.97
2022-08-20T07:08:50.808Z,982.01
2022-08-20T07:09:50.042Z,982.00
2022-08-20T07:10:50.053Z,982.02
2022-08-20T07:11:50.411Z,982.00
2022-08-20T07:12:50.056Z,982.04
2022-08-20T07:13:49.932Z,981.98
2022-08-20T07:14:49.951Z,982.00
2022-08-20T07:15:50.302Z,982.02
2022-08-20T07:16:49.893Z,982.05
2022-08-20T07:17:49.881Z,982.00
2022-08-20T07:18:49.957Z,982.04
2022-08-20T07:19:50.314Z,982.02
2022-08-20T07:20:49.833Z,982.06
2022-08-20T07:21:50.054Z,982.06
2022-08-20T07:22:50.073Z,982.09
2022-08-20T07:23:50.242Z,982.11
2022-08-20T07:24:49.785Z,982.15
2022-08-20T07:25:49.895Z,982.18
2022-08-20T07:26:50.302Z,982.18
2022-08-20T07:27:49.845Z,982.19
2022-08-20T07:28:49.974Z,982.27
2022-08-20T07:29:49.826Z,982.22
2022-08-20T07:30:57.104Z,982.23
2022-08-20T07:31:50.755Z,982.24
2022-08-20T07:32:49.914Z,982.19
2022-08-20T07:33:50.470Z,982.26
2022-08-20T07:34:49.865Z,982.26
2022-08-20T07:35:49.716Z,982.32
2022-08-20T07:36:49.737Z,982.31
2022-08-20T07:37:49.849Z,982.29
2022-08-20T07:38:49.910Z,982.30
2022-08-20T07:39:49.715Z,982.33
2022-08-20T07:40:49.707Z,982.34
2022-08-20T07:41:56.494Z,982.35
2022-08-20T07:42:50.707Z,982.36
2022-08-20T07:43:49.557Z,982.35
2022-08-20T07:44:49.566Z,982.36
2022-08-20T07:45:49.836Z,982.40
2022-08-20T07:46:49.545Z,982.39
2022-08-20T07:47:49.528Z,982.42
2022-08-20T07:48:49.528Z,982.44
2022-08-20T07:49:49.496Z,982.37
2022-08-20T07:50:49.486Z,982.43
2022-08-20T07:51:49.475Z,982.37
2022-08-20T07:52:49.518Z,982.43
2022-08-20T07:53:49.464Z,982.43
2022-08-20T07:54:49.448Z,982.42
2022-08-20T07:55:58.778Z,982.43
2022-08-20T07:56:50.428Z,982.37
2022-08-20T07:57:49.407Z,982.41
2022-08-20T07:58:49.418Z,982.42
2022-08-20T07:59:49.406Z,982.41
2022-08-20T08:00:49.482Z,982.44
2022-08-20T08:01:49.358Z,982.45
2022-08-20T08:02:49.448Z,982.37
2022-08-20T08:03:50.752Z,982.44
2022-08-20T08:04:49.347Z,982.41
2022-08-20T08:05:49.317Z,982.42
2022-08-20T08:06:49.319Z,982.42
2022-08-20T08:07:49.291Z,982.43
2022-08-20T08:08:49.288Z,982.46
2022-08-20T08:09:49.268Z,982.42
2022-08-20T08:10:49.278Z,982.41
2022-08-20T08:11:49.287Z,982.45
2022-08-20T08:12:49.306Z,982.47
2022-08-20T08:13:49.228Z,982.51
2022-08-20T08:14:49.231Z,982.51
2022-08-20T08:15:49.203Z,982.46
2022-08-20T08:16:49.287Z,982.44
2022-08-20T08:17:49.189Z,982.43
2022-08-20T08:18:49.190Z,982.48
2022-08-20T08:19:49.160Z,982.50
2022-08-20T08:20:49.168Z,982.54
2022-08-20T08:21:49.142Z,982.47
2022-08-20T08:22:49.154Z,982.49
2022-08-20T08:23:49.130Z,982.49
2022-08-20T08:24:56.684Z,982.47
2022-08-20T08:25:50.090Z,982.50
2022-08-20T08:26:49.097Z,982.51
2022-08-20T08:27:49.079Z,982.50
2022-08-20T08:28:49.889Z,982.50
2022-08-20T08:29:49.090Z,982.48
2022-08-20T08:30:49.053Z,982.50
2022-08-20T08:31:49.028Z,982.53
2022-08-20T08:32:49.029Z,982.52
2022-08-20T08:33:49.002Z,982.54
2022-08-20T08:34:49.010Z,982.53
2022-08-20T08:35:48.980Z,982.56
2022-08-20T08:36:48.988Z,982.54
2022-08-20T08:37:48.951Z,982.51
2022-08-20T08:38:48.960Z,982.55
2022-08-20T08:39:48.951Z,982.57
2022-08-20T08:40:48.939Z,982.56
2022-08-20T08:41:48.919Z,982.58
2022-08-20T08:42:48.930Z,982.61
2022-08-20T08:43:48.904Z,982.59
2022-08-20T08:44:48.892Z,982.62
2022-08-20T08:45:48.872Z,982.64
2022-08-20T08:46:48.960Z,982.61
2022-08-20T08:47:48.850Z,982.64
2022-08-20T08:48:49.641Z,982.64
2022-08-20T08:49:48.842Z,982.67
2022-08-20T08:50:53.241Z,982.68
2022-08-20T08:51:49.811Z,982.71
2022-08-20T08:52:48.823Z,982.68
2022-08-20T08:53:48.771Z,982.73
2022-08-20T08:54:48.788Z,982.75
2022-08-20T08:55:48.767Z,982.73
2022-08-20T08:56:50.109Z,982.76
2022-08-20T08:57:48.741Z,982.77
2022-08-20T08:58:48.774Z,982.74
2022-08-20T09:00:02.426Z,982.76
2022-08-20T09:00:52.757Z,982.76
2022-08-20T09:01:53.969Z,982.80
2022-08-20T09:02:49.800Z,982.75
2022-08-20T09:03:48.898Z,982.76
2022-08-20T09:04:48.673Z,982.75
2022-08-20T09:05:48.642Z,982.83
2022-08-20T09:06:52.177Z,982.83
2022-08-20T09:07:48.624Z,982.83
2022-08-20T09:08:48.662Z,982.80
2022-08-20T09:09:48.624Z,982.82
2022-08-20T09:10:48.852Z,982.81
2022-08-20T09:11:48.604Z,982.88
2022-08-20T09:12:48.573Z,982.87
2022-08-20T09:13:48.554Z,982.85
2022-08-20T09:14:48.559Z,982.80
2022-08-20T09:15:48.536Z,982.81
2022-08-20T09:16:52.956Z,982.78
2022-08-20T09:17:49.579Z,982.78
2022-08-20T09:18:48.504Z,982.80
2022-08-20T09:19:48.502Z,982.80
2022-08-20T09:20:48.499Z,982.81
2022-08-20T09:21:48.465Z,982.80
2022-08-20T09:22:48.472Z,982.86
2022-08-20T09:23:48.434Z,982.89
2022-08-20T09:24:48.444Z,982.88
2022-08-20T09:25:48.424Z,982.89
2022-08-20T09:26:48.425Z,982.88
2022-08-20T09:27:48.427Z,982.92
2022-08-20T09:28:52.130Z,982.94
2022-08-20T09:29:49.248Z,982.93
2022-08-20T09:30:49.275Z,982.90
2022-08-20T09:31:48.384Z,982.90
2022-08-20T09:32:48.377Z,982.90
2022-08-20T09:33:48.787Z,982.89
2022-08-20T09:34:48.326Z,982.91
2022-08-20T09:35:48.305Z,982.90
2022-08-20T09:36:49.127Z,982.93
2022-08-20T09:37:50.907Z,982.96
2022-08-20T09:38:48.295Z,982.93
2022-08-20T09:39:48.885Z,982.94
2022-08-20T09:40:48.262Z,982.94
2022-08-20T09:41:48.239Z,982.95
2022-08-20T09:42:48.258Z,982.99
2022-08-20T09:43:48.255Z,982.99
2022-08-20T09:44:48.214Z,983.00
2022-08-20T09:45:48.465Z,982.88
2022-08-20T09:46:48.195Z,982.87
2022-08-20T09:47:57.048Z,982.85
2022-08-20T09:48:49.171Z,982.85
2022-08-20T09:49:48.586Z,982.86
2022-08-20T09:50:48.932Z,982.86
2022-08-20T09:51:48.167Z,982.85
2022-08-20T09:52:48.125Z,982.90
2022-08-20T09:53:48.113Z,982.90
2022-08-20T09:54:48.937Z,982.94
2022-08-20T09:55:48.845Z,982.94
2022-08-20T09:56:48.095Z,982.94
2022-08-20T09:57:48.058Z,982.93
2022-08-20T09:58:48.077Z,982.96
2022-08-20T09:59:48.968Z,982.91
2022-08-20T10:00:48.076Z,982.93
2022-08-20T10:01:48.049Z,982.93
2022-08-20T10:02:48.037Z,982.95
2022-08-20T10:03:48.266Z,982.93
2022-08-20T10:04:48.747Z,982.96
2022-08-20T10:05:47.982Z,982.93
2022-08-20T10:06:47.988Z,982.97
2022-08-20T10:07:48.736Z,982.96
2022-08-20T10:08:48.751Z,982.97
2022-08-20T10:09:47.941Z,982.99
2022-08-20T10:10:47.968Z,983.06
2022-08-20T10:11:48.837Z,983.08
2022-08-20T10:12:52.797Z,983.10
2022-08-20T10:13:48.932Z,983.06
2022-08-20T10:14:48.145Z,983.04
2022-08-20T10:15:48.152Z,983.06
2022-08-20T10:16:48.619Z,983.05
2022-08-20T10:17:47.868Z,983.01
2022-08-20T10:18:47.826Z,983.05
2022-08-20T10:19:48.378Z,982.99
2022-08-20T10:20:48.611Z,983.02
2022-08-20T10:21:47.789Z,982.99
2022-08-20T10:22:47.770Z,983.00
2022-08-20T10:23:48.732Z,983.01
2022-08-20T10:24:48.619Z,983.06
2022-08-20T10:25:47.810Z,982.98
2022-08-20T10:26:47.749Z,983.04
2022-08-20T10:27:47.731Z,982.96
2022-08-20T10:28:48.500Z,982.99
2022-08-20T10:29:48.649Z,983.01
2022-08-20T10:30:48.817Z,983.01
2022-08-20T10:31:48.461Z,983.00
2022-08-20T10:32:47.750Z,983.00
2022-08-20T10:33:48.521Z,983.03
2022-08-20T10:34:47.649Z,982.94
2022-08-20T10:35:48.595Z,983.01
2022-08-20T10:36:47.621Z,982.92
2022-08-20T10:37:47.670Z,982.95
2022-08-20T10:38:47.659Z,982.93
2022-08-20T10:39:47.652Z,982.90
2022-08-20T10:40:54.619Z,982.88
2022-08-20T10:41:47.562Z,982.84
2022-08-20T10:42:47.562Z,982.91
2022-08-20T10:43:47.581Z,982.87
2022-08-20T10:44:47.551Z,982.92
2022-08-20T10:45:48.391Z,982.84
2022-08-20T10:46:47.521Z,982.87
2022-08-20T10:47:47.873Z,982.85
2022-08-20T10:48:47.569Z,982.79
2022-08-20T10:49:47.494Z,982.82
2022-08-20T10:50:47.503Z,982.80
2022-08-20T10:51:48.101Z,982.87
2022-08-20T10:52:47.913Z,982.84
2022-08-20T10:53:47.712Z,982.84
2022-08-20T10:54:48.223Z,982.88
2022-08-20T10:55:47.613Z,982.89
2022-08-20T10:56:47.423Z,982.87
2022-08-20T10:57:47.393Z,982.89
2022-08-20T10:58:47.424Z,982.93
2022-08-20T10:59:47.445Z,982.88
2022-08-20T11:00:48.233Z,982.89
2022-08-20T11:01:47.376Z,982.83
2022-08-20T11:02:48.054Z,982.83
2022-08-20T11:03:48.204Z,982.85
2022-08-20T11:04:47.314Z,982.85
2022-08-20T11:05:47.317Z,982.82
2022-08-20T11:06:47.283Z,982.85
2022-08-20T11:07:55.736Z,982.82
2022-08-20T11:08:48.285Z,982.82
2022-08-20T11:09:47.247Z,982.87
2022-08-20T11:10:47.255Z,982.87
2022-08-20T11:11:47.947Z,982.87
2022-08-20T11:12:48.105Z,982.95
2022-08-20T11:13:47.232Z,982.94
2022-08-20T11:14:47.329Z,982.90
2022-08-20T11:15:48.075Z,982.89
2022-08-20T11:16:47.245Z,982.93
2022-08-20T11:17:47.180Z,982.94
2022-08-20T11:18:52.474Z,982.91
2022-08-20T11:19:47.591Z,982.92
2022-08-20T11:20:47.862Z,982.89
2022-08-20T11:21:48.013Z,982.89
2022-08-20T11:22:47.184Z,982.91
2022-08-20T11:23:47.596Z,982.97
2022-08-20T11:24:47.596Z,982.96
2022-08-20T11:25:47.125Z,982.89
2022-08-20T11:26:47.104Z,982.93
2022-08-20T11:27:47.076Z,982.88
2022-08-20T11:28:47.229Z,982.94
2022-08-20T11:29:47.057Z,982.91
2022-08-20T11:30:47.236Z,982.94
2022-08-20T11:31:47.857Z,982.91
2022-08-20T11:32:47.728Z,982.90
2022-08-20T11:33:47.884Z,982.87
2022-08-20T11:34:47.676Z,982.88
2022-08-20T11:35:49.137Z,982.93
2022-08-20T11:36:46.958Z,982.91
2022-08-20T11:37:46.958Z,982.88
2022-08-20T11:38:47.037Z,982.92
2022-08-20T11:39:46.965Z,982.89
2022-08-20T11:40:47.156Z,982.94
2022-08-20T11:41:47.020Z,982.95
2022-08-20T11:43:11.067Z,982.98
2022-08-20T11:44:10.507Z,982.95
2022-08-20T11:44:47.874Z,982.94
2022-08-20T11:45:47.048Z,982.97
2022-08-20T11:46:47.158Z,982.95
2022-08-20T11:47:46.882Z,982.91
2022-08-20T11:48:47.526Z,982.91
2022-08-20T11:49:46.829Z,982.96
2022-08-20T11:50:46.878Z,982.93
2022-08-20T11:51:49.573Z,982.91
2022-08-20T11:52:47.529Z,982.94
2022-08-20T11:53:47.537Z,982.95
2022-08-20T11:54:46.759Z,983.00
2022-08-20T11:55:46.931Z,982.99
2022-08-20T11:56:46.741Z,982.96
2022-08-20T11:57:46.743Z,982.95
2022-08-20T11:58:46.710Z,982.91
2022-08-20T11:59:46.821Z,982.93
2022-08-20T12:00:46.869Z,982.95
2022-08-20T12:02:03.213Z,982.94
2022-08-20T12:02:47.901Z,982.96
2022-08-20T12:03:46.661Z,982.93
2022-08-20T12:04:46.641Z,982.89
2022-08-20T12:05:47.393Z,982.88
2022-08-20T12:06:46.621Z,982.92
2022-08-20T12:07:46.662Z,982.90
2022-08-20T12:08:46.603Z,982.91
2022-08-20T12:09:50.376Z,982.96
2022-08-20T12:10:46.890Z,982.97
2022-08-20T12:11:46.692Z,982.95
2022-08-20T12:12:46.692Z,982.92
2022-08-20T12:13:48.180Z,982.88
2022-08-20T12:14:46.605Z,982.86
2022-08-20T12:15:46.866Z,982.81
2022-08-20T12:16:47.349Z,982.81
2022-08-20T12:17:46.536Z,982.86
2022-08-20T12:18:46.483Z,982.82
2022-08-20T12:19:46.514Z,982.83
2022-08-20T12:20:46.482Z,982.84
2022-08-20T12:21:46.463Z,982.82
2022-08-20T12:22:47.295Z,982.82
2022-08-20T12:23:46.456Z,982.82
2022-08-20T12:24:46.423Z,982.81
2022-08-20T12:25:46.685Z,982.86
2022-08-20T12:26:47.404Z,982.82
2022-08-20T12:27:46.494Z,982.82
2022-08-20T12:28:46.504Z,982.80